Flight Track Log - Related Links

Times and Time Zones

All times are in EDT time to prevent confusion due to time zone crossing. See the N586MC flight status page for this flight to view local times or setup timezone preferences in your user account.

Time Position Orientation Groundspeed Altitude Reporting Facility
EDT Latitude Longitude Course Direction KTS MPH feet Rate Location/Type
Fri 02:08:42 PM 38.4386 -88.5428 314° West 132 152 3,400  Level Kansas City Center
Fri 02:09:44 PM 38.4633 -88.5767 313° West 132 152 3,900 532 Climbing Kansas City Center
Fri 02:10:46 PM 38.4872 -88.6111 312° West 130 150 4,500 532 Climbing Kansas City Center
Fri 02:11:48 PM 38.5142 -88.6461 315° West 134 154 5,000 532 Climbing Kansas City Center
Fri 02:12:50 PM 38.5383 -88.6892 306° West 130 150 5,600 484 Climbing Kansas City Center
Fri 02:13:00 PM 38.6086 -88.7503 311° West  Level FlightAware Approximate
Fri 02:13:52 PM 38.5667 -88.7286 313° West 136 157 6,000  Level Kansas City Center
Fri 02:14:54 PM 38.5919 -88.7669 310° West 150 173 5,900 -48 Descending Kansas City Center
Fri 02:15:56 PM 38.6244 -88.8131 312° West 154 177 5,900  Level Kansas City Center
Fri 02:16:58 PM 38.6553 -88.8542 314° West 158 182 5,900 48 Level Kansas City Center
Fri 02:18:01 PM 38.6833 -88.8956 311° West 156 180 6,000 288 Climbing Kansas City Center
Fri 02:19:03 PM 38.7094 -88.9350 310° West 149 171 6,500 484 Climbing Kansas City Center
Fri 02:20:05 PM 38.7375 -88.9711 315° West 144 166 7,000 532 Climbing Kansas City Center
Fri 02:21:07 PM 38.7642 -89.0150 308° West 135 155 7,600 435 Climbing Kansas City Center
Fri 02:22:09 PM 38.7889 -89.0506 312° West 134 154 7,900 145 Climbing Kansas City Center
Fri 02:23:11 PM 38.8189 -89.0939 312° West 148 170 7,900  Level Kansas City Center
Fri 02:24:13 PM 38.8467 -89.1342 312° West 152 175 7,900  Level Kansas City Center
Fri 02:25:15 PM 38.8772 -89.1792 311° West 154 177 7,900  Level Kansas City Center
Fri 02:26:17 PM 38.9058 -89.2200 312° West 155 178 7,900  Level Kansas City Center
Fri 02:27:19 PM 38.9372 -89.2650 312° West 157 181 7,900  Level Kansas City Center
Fri 02:28:21 PM 38.9653 -89.3067 311° West 156 180 7,900  Level Kansas City Center
Fri 02:29:23 PM 38.9961 -89.3514 312° West 155 178 7,900  Level Kansas City Center
Fri 02:30:25 PM 39.0247 -89.3933 311° West 157 181 7,900  Level Kansas City Center
Fri 02:31:27 PM 39.0561 -89.4383 312° West 157 181 7,900  Level Kansas City Center
Fri 02:32:29 PM 39.0850 -89.4814 311° West 158 182 7,900  Level Kansas City Center
Fri 02:33:31 PM 39.1136 -89.5233 311° West 157 181 7,900  Level Kansas City Center
Fri 02:34:33 PM 39.1444 -89.5683 311° West 157 181 7,900 48 Level Kansas City Center
Fri 02:35:35 PM 39.1731 -89.6108 311° West 157 181 8,000 48 Climbing Kansas City Center
Fri 02:36:37 PM 39.2014 -89.6522 311° West 160 184 8,000  Level Kansas City Center
Fri 02:37:40 PM 39.2300 -89.6944 311° West 159 183 8,000  Level Kansas City Center
Fri 02:38:42 PM 39.2639 -89.7442 311° West 155 178 8,000  Level Kansas City Center
Fri 02:39:44 PM 39.2931 -89.7867 312° West 157 181 8,000  Level Kansas City Center
Fri 02:40:46 PM 39.3214 -89.8300 310° West 158 182 8,000  Level Kansas City Center
Fri 02:41:48 PM 39.3494 -89.8719 311° West 157 181 8,000  Level Kansas City Center
Fri 02:42:50 PM 39.3783 -89.9136 312° West 156 180 8,000  Level Kansas City Center
Fri 02:43:52 PM 39.4069 -89.9550 312° West 155 178 8,000  Level Kansas City Center
Fri 02:44:54 PM 39.4414 -90.0086 310° West 160 184 8,000 48 Level Kansas City Center
Fri 02:45:56 PM 39.4694 -90.0514 310° West 159 183 8,100 48 Climbing Kansas City Center
Fri 02:46:58 PM 39.4986 -90.0928 312° West 157 181 8,100  Level Kansas City Center
Fri 02:48:00 PM 39.5269 -90.1361 310° West 157 181 8,100  Level Kansas City Center
Fri 02:49:02 PM 39.5556 -90.1797 310° West 159 183 8,100  Level Kansas City Center
Fri 02:50:04 PM 39.5900 -90.2317 311° West 158 182 8,100 -48 Level Kansas City Center
Fri 02:51:06 PM 39.6178 -90.2733 311° West 155 178 8,000 -48 Descending Kansas City Center
Fri 02:52:08 PM 39.6464 -90.3153 312° West 156 180 8,000  Level Kansas City Center
Fri 02:53:11 PM 39.6742 -90.3589 310° West 156 180 8,000  Level Kansas City Center
Fri 02:54:13 PM 39.7022 -90.4017 310° West 155 178 8,000  Level Kansas City Center
Fri 02:55:15 PM 39.7311 -90.4453 311° West 157 181 8,000  Level Kansas City Center
Fri 02:56:17 PM 39.7636 -90.4944 311° West 155 178 8,000  Level Kansas City Center
Fri 02:57:19 PM 39.7928 -90.5392 310° West 158 182 8,000  Level Kansas City Center
Fri 02:58:21 PM 39.8222 -90.5842 310° West 161 185 8,000  Level Kansas City Center
Fri 02:59:23 PM 39.8494 -90.6258 310° West 156 180 8,000  Level Kansas City Center
Fri 03:00:25 PM 39.8775 -90.6697 310° West 156 180 8,000  Level Kansas City Center
Fri 03:01:27 PM 39.9061 -90.7117 312° West 155 178 8,000  Level Kansas City Center
Fri 03:02:29 PM 39.9417 -90.7661 310° West 158 182 8,000  Level Kansas City Center
Fri 03:03:31 PM 39.9694 -90.8097 310° West 159 183 8,000  Level Kansas City Center
Fri 03:04:33 PM 40.0000 -90.8564 311° West 162 186 8,000  Level Kansas City Center
Fri 03:05:35 PM 40.0300 -90.9011 311° West 163 188 8,000  Level Kansas City Center
Fri 03:06:37 PM 40.0592 -90.9456 311° West 162 186 8,000  Level Kansas City Center
Fri 03:07:39 PM 40.0936 -90.9975 311° West 163 188 8,000  Level Kansas City Center
Fri 03:08:41 PM 40.1211 -91.0414 309° West 160 184 8,000  Level Kansas City Center
Fri 03:09:43 PM 40.1486 -91.0856 309° West 159 183 8,000  Level Kansas City Center
Fri 03:10:46 PM 40.1769 -91.1300 310° West 160 184 8,000  Level Kansas City Center
Fri 03:11:48 PM 40.2061 -91.1742 311° West 161 185 8,000  Level Kansas City Center
Fri 03:12:50 PM 40.2403 -91.2278 310° West 161 185 8,000  Level Kansas City Center
Fri 03:13:52 PM 40.2683 -91.2725 309° West 161 185 8,000  Level Kansas City Center
Fri 03:14:54 PM 40.2986 -91.3175 311° West 163 188 8,000  Level Kansas City Center
Fri 03:15:56 PM 40.3264 -91.3617 310° West 160 184 8,000  Level Kansas City Center
Fri 03:16:58 PM 40.3533 -91.4069 308° West 159 183 8,000  Level Kansas City Center
Fri 03:18:00 PM 40.3892 -91.4603 311° West 163 188 8,000  Level Kansas City Center
Fri 03:19:02 PM 40.4189 -91.5061 310° West 165 190 8,000  Level Kansas City Center
Fri 03:20:04 PM 40.4472 -91.5506 310° West 163 188 8,000  Level Kansas City Center
Fri 03:21:06 PM 40.4750 -91.5950 309° West 160 184 8,000  Level Kansas City Center
Fri 03:22:08 PM 40.5033 -91.6403 309° West 161 185 8,000  Level Kansas City Center
Fri 03:23:10 PM 40.5383 -91.6953 310° West 164 189 8,000  Level Kansas City Center
Fri 03:24:12 PM 40.5678 -91.7406 311° West 164 189 8,000  Level Kansas City Center
Fri 03:25:14 PM 40.5956 -91.7856 309° West 163 188 8,000 48 Level Kansas City Center
Fri 03:26:16 PM 40.6236 -91.8294 310° West 161 185 8,100 48 Climbing Kansas City Center
Fri 03:27:18 PM 40.6581 -91.8844 310° West 162 186 8,100  Level Kansas City Center
Fri 03:28:20 PM 40.6869 -91.9292 310° West 163 188 8,100  Level Kansas City Center
Fri 03:29:22 PM 40.7156 -91.9744 310° West 163 188 8,100  Level Kansas City Center
Fri 03:30:24 PM 40.7442 -92.0200 310° West 163 188 8,100  Level Kansas City Center
Fri 03:31:26 PM 40.7728 -92.0656 310° West 163 188 8,100  Level Kansas City Center
Fri 03:32:28 PM 40.8069 -92.1206 309° West 163 188 8,100  Level Kansas City Center
Fri 03:33:31 PM 40.8358 -92.1664 310° West 163 188 8,100  Level Kansas City Center
Fri 03:34:33 PM 40.8642 -92.2114 310° West 162 186 8,100  Level Kansas City Center
Fri 03:35:35 PM 40.8917 -92.2575 308° West 162 186 8,100  Level Kansas City Center
Fri 03:36:37 PM 40.9206 -92.3044 309° West 164 189 8,100  Level Kansas City Center
Fri 03:37:39 PM 40.9564 -92.3603 310° West 166 191 8,100  Level Kansas City Center
Fri 03:38:41 PM 40.9856 -92.4053 311° West 165 190 8,100  Level Kansas City Center
Fri 03:39:43 PM 41.0128 -92.4511 308° West 162 186 8,100 -42 Level Kansas City Center
Fri 03:41:04 PM 41.0531 -92.5158 310° West 164 189 8,000 -42 Descending Chicago Center
Fri 03:42:06 PM 41.0819 -92.5614 310° West 164 189 8,000  Level Chicago Center
Fri 03:43:08 PM 41.1100 -92.6078 309° West 163 188 8,000  Level Chicago Center
Fri 03:44:10 PM 41.1456 -92.6642 310° West 165 190 8,000  Level Chicago Center
Fri 03:45:12 PM 41.1736 -92.7103 309° West 164 189 8,000  Level Chicago Center
Fri 03:46:14 PM 41.2019 -92.7575 309° West 165 190 8,000  Level Chicago Center
Fri 03:47:16 PM 41.2303 -92.8042 309° West 165 190 8,000  Level Chicago Center
Fri 03:48:19 PM 41.2594 -92.8517 309° West 166 191 8,000  Level Chicago Center
Fri 03:49:16 PM 41.2928 -92.9039 310° West 165 190 8,000  Level Minneapolis Center
Fri 03:50:12 PM 41.3225 -92.9386 319° Northwest 163 188 8,000  Level Minneapolis Center
Fri 03:50:18 PM 41.3231 -92.9544 273° West 163 188 8,000 -98 Level Minneapolis Center
Fri 03:51:13 PM 41.3528 -92.9903 318° Northwest 163 188 7,900 -97 Descending Minneapolis Center
Fri 03:51:20 PM 41.3519 -93.0017 264° West 164 189 7,900 -300 Level Minneapolis Center
Fri 03:52:13 PM 41.3828 -93.0364 320° Northwest 167 192 7,600 -387 Descending Minneapolis Center
Fri 03:52:22 PM 41.3828 -93.0539 270° West 166 191 7,500 -492 Descending Minneapolis Center
Fri 03:53:14 PM 41.4131 -93.0881 320° Northwest 176 203 7,100 -484 Descending Minneapolis Center
Fri 03:53:24 PM 41.4142 -93.1044 275° West 175 201 7,000 -500 Descending Minneapolis Center
Fri 03:54:14 PM 41.4450 -93.1397 319° Northwest 177 204 6,600 -484 Descending Minneapolis Center
Fri 03:54:26 PM 41.4447 -93.1547 269° West 176 203 6,500 -590 Descending Minneapolis Center
Fri 03:55:15 PM 41.4753 -93.1886 320° Northwest 175 201 6,000 -581 Descending Minneapolis Center
Fri 03:55:28 PM 41.4775 -93.2092 278° West 175 201 5,900 -590 Descending Minneapolis Center
Fri 03:56:16 PM 41.5053 -93.2375 323° Northwest 172 198 5,400 -581 Descending Minneapolis Center
Fri 03:56:30 PM 41.5069 -93.2586 276° West 171 197 5,300 -590 Descending Minneapolis Center
Fri 03:57:17 PM 41.5353 -93.2894 321° Northwest 171 197 4,800 -581 Descending Minneapolis Center
Fri 03:57:32 PM 41.5392 -93.3125 283° West 172 198 4,700 -600 Descending Minneapolis Center
Fri 03:58:17 PM 41.5672 -93.3411 323° Northwest 175 201 4,200 -581 Descending Minneapolis Center
Fri 03:58:34 PM 41.5689 -93.3636 276° West 174 200 4,100 -492 Descending Minneapolis Center
Fri 03:59:18 PM 41.5972 -93.3931 322° Northwest 177 204 3,700 -554 Descending Minneapolis Center
Fri 03:59:39 PM 41.6022 -93.4172 285° West 174 200 3,500 -590 Descending Minneapolis Center
Fri 04:00:19 PM 41.6272 -93.4425 323° Northwest 170 196 3,100 -484 Descending Minneapolis Center
Fri 04:00:41 PM 41.6306 -93.4669 280° West 170 196 3,000 -273 Descending Minneapolis Center

Login

Don't have an account? Register now (free) for customized features, flight alerts, and more!